sensor_id;sensor_type;location;lat;lon;timestamp;temperature;humidity
7658;DHT22;8462;53.156;8.220;2023-03-29T00:01:39;9.70;64.70
7658;DHT22;8462;53.156;8.220;2023-03-29T00:04:07;9.70;64.70
7658;DHT22;8462;53.156;8.220;2023-03-29T00:06:36;9.80;64.40
7658;DHT22;8462;53.156;8.220;2023-03-29T00:09:03;9.80;64.20
7658;DHT22;8462;53.156;8.220;2023-03-29T00:11:31;9.80;64.30
7658;DHT22;8462;53.156;8.220;2023-03-29T00:13:58;9.80;64.20
7658;DHT22;8462;53.156;8.220;2023-03-29T00:16:25;9.80;64.30
7658;DHT22;8462;53.156;8.220;2023-03-29T00:18:52;9.80;64.10
7658;DHT22;8462;53.156;8.220;2023-03-29T00:21:20;9.80;63.80
7658;DHT22;8462;53.156;8.220;2023-03-29T00:23:48;9.80;63.90
7658;DHT22;8462;53.156;8.220;2023-03-29T00:26:15;9.80;64.90
7658;DHT22;8462;53.156;8.220;2023-03-29T00:28:43;9.80;64.80
7658;DHT22;8462;53.156;8.220;2023-03-29T00:31:12;9.80;64.20
7658;DHT22;8462;53.156;8.220;2023-03-29T00:33:40;9.80;64.20
7658;DHT22;8462;53.156;8.220;2023-03-29T00:36:08;9.80;64.00
7658;DHT22;8462;53.156;8.220;2023-03-29T00:38:35;9.80;64.00
7658;DHT22;8462;53.156;8.220;2023-03-29T00:41:05;9.80;64.00
7658;DHT22;8462;53.156;8.220;2023-03-29T00:43:55;9.70;63.60
7658;DHT22;8462;53.156;8.220;2023-03-29T00:46:22;9.70;63.60
7658;DHT22;8462;53.156;8.220;2023-03-29T00:48:52;9.70;63.60
7658;DHT22;8462;53.156;8.220;2023-03-29T00:51:22;9.70;63.50
7658;DHT22;8462;53.156;8.220;2023-03-29T00:53:53;9.60;63.60
7658;DHT22;8462;53.156;8.220;2023-03-29T00:56:26;9.70;63.50
7658;DHT22;8462;53.156;8.220;2023-03-29T00:58:57;9.70;63.40
7658;DHT22;8462;53.156;8.220;2023-03-29T01:01:28;9.60;63.10
7658;DHT22;8462;53.156;8.220;2023-03-29T01:04:00;9.50;63.30
7658;DHT22;8462;53.156;8.220;2023-03-29T01:06:31;9.50;63.60
7658;DHT22;8462;53.156;8.220;2023-03-29T01:09:02;9.40;63.70
7658;DHT22;8462;53.156;8.220;2023-03-29T01:11:38;9.30;64.00
7658;DHT22;8462;53.156;8.220;2023-03-29T01:14:12;9.30;64.30
7658;DHT22;8462;53.156;8.220;2023-03-29T01:16:40;9.30;64.90
7658;DHT22;8462;53.156;8.220;2023-03-29T01:19:09;9.20;65.30
7658;DHT22;8462;53.156;8.220;2023-03-29T01:21:43;9.20;66.10
7658;DHT22;8462;53.156;8.220;2023-03-29T01:24:23;9.20;66.20
7658;DHT22;8462;53.156;8.220;2023-03-29T01:27:02;9.20;66.70
7658;DHT22;8462;53.156;8.220;2023-03-29T01:29:34;9.20;67.40
7658;DHT22;8462;53.156;8.220;2023-03-29T01:32:07;9.10;67.90
7658;DHT22;8462;53.156;8.220;2023-03-29T01:34:39;9.10;68.20
7658;DHT22;8462;53.156;8.220;2023-03-29T01:37:13;9.10;68.40
7658;DHT22;8462;53.156;8.220;2023-03-29T01:39:42;9.00;69.00
7658;DHT22;8462;53.156;8.220;2023-03-29T01:42:19;9.00;69.00
7658;DHT22;8462;53.156;8.220;2023-03-29T01:44:56;9.00;69.60
7658;DHT22;8462;53.156;8.220;2023-03-29T01:47:31;9.00;70.00
7658;DHT22;8462;53.156;8.220;2023-03-29T01:50:08;8.90;69.90
7658;DHT22;8462;53.156;8.220;2023-03-29T01:52:41;8.90;70.00
7658;DHT22;8462;53.156;8.220;2023-03-29T01:55:18;8.80;70.60
7658;DHT22;8462;53.156;8.220;2023-03-29T01:57:46;8.70;70.60
7658;DHT22;8462;53.156;8.220;2023-03-29T02:00:21;8.70;70.70
7658;DHT22;8462;53.156;8.220;2023-03-29T02:02:52;8.60;70.90
7658;DHT22;8462;53.156;8.220;2023-03-29T02:05:22;8.60;71.50
7658;DHT22;8462;53.156;8.220;2023-03-29T02:07:51;8.60;72.40
7658;DHT22;8462;53.156;8.220;2023-03-29T02:10:21;8.60;72.50
7658;DHT22;8462;53.156;8.220;2023-03-29T02:12:48;8.60;72.40
7658;DHT22;8462;53.156;8.220;2023-03-29T02:15:19;8.60;72.60
7658;DHT22;8462;53.156;8.220;2023-03-29T02:17:46;8.70;73.10
7658;DHT22;8462;53.156;8.220;2023-03-29T02:20:17;8.70;73.50
7658;DHT22;8462;53.156;8.220;2023-03-29T02:22:50;8.70;73.70
7658;DHT22;8462;53.156;8.220;2023-03-29T02:25:21;8.70;73.80
7658;DHT22;8462;53.156;8.220;2023-03-29T02:27:49;8.70;73.80
7658;DHT22;8462;53.156;8.220;2023-03-29T02:30:20;8.70;74.00
7658;DHT22;8462;53.156;8.220;2023-03-29T02:32:51;8.70;74.20
7658;DHT22;8462;53.156;8.220;2023-03-29T02:35:24;8.70;74.30
7658;DHT22;8462;53.156;8.220;2023-03-29T02:37:55;8.70;74.40
7658;DHT22;8462;53.156;8.220;2023-03-29T02:40:25;8.70;74.60
7658;DHT22;8462;53.156;8.220;2023-03-29T02:42:53;8.70;74.90
7658;DHT22;8462;53.156;8.220;2023-03-29T02:45:23;8.80;75.20
7658;DHT22;8462;53.156;8.220;2023-03-29T02:47:53;8.80;75.60
7658;DHT22;8462;53.156;8.220;2023-03-29T02:50:23;8.80;75.70
7658;DHT22;8462;53.156;8.220;2023-03-29T02:52:52;8.70;75.80
7658;DHT22;8462;53.156;8.220;2023-03-29T02:55:22;8.70;76.00
7658;DHT22;8462;53.156;8.220;2023-03-29T02:57:50;8.70;76.30
7658;DHT22;8462;53.156;8.220;2023-03-29T03:00:18;8.80;76.30
7658;DHT22;8462;53.156;8.220;2023-03-29T03:02:49;8.80;76.50
7658;DHT22;8462;53.156;8.220;2023-03-29T03:05:17;8.80;76.50
7658;DHT22;8462;53.156;8.220;2023-03-29T03:07:44;8.80;76.60
7658;DHT22;8462;53.156;8.220;2023-03-29T03:10:12;8.80;77.00
7658;DHT22;8462;53.156;8.220;2023-03-29T03:12:39;8.80;77.10
7658;DHT22;8462;53.156;8.220;2023-03-29T03:15:07;8.80;77.00
7658;DHT22;8462;53.156;8.220;2023-03-29T03:17:37;8.80;77.10
7658;DHT22;8462;53.156;8.220;2023-03-29T03:20:09;8.90;77.20
7658;DHT22;8462;53.156;8.220;2023-03-29T03:22:40;8.80;77.40
7658;DHT22;8462;53.156;8.220;2023-03-29T03:25:07;8.90;77.20
7658;DHT22;8462;53.156;8.220;2023-03-29T03:27:36;8.80;77.40
7658;DHT22;8462;53.156;8.220;2023-03-29T03:30:04;8.80;77.70
7658;DHT22;8462;53.156;8.220;2023-03-29T03:32:49;8.80;78.00
7658;DHT22;8462;53.156;8.220;2023-03-29T03:35:46;8.80;78.00
7658;DHT22;8462;53.156;8.220;2023-03-29T03:38:14;8.80;78.30
7658;DHT22;8462;53.156;8.220;2023-03-29T03:40:43;8.80;78.40
7658;DHT22;8462;53.156;8.220;2023-03-29T03:43:10;8.80;78.40
7658;DHT22;8462;53.156;8.220;2023-03-29T03:45:37;8.80;78.80
7658;DHT22;8462;53.156;8.220;2023-03-29T03:48:16;8.80;78.90
7658;DHT22;8462;53.156;8.220;2023-03-29T03:50:51;8.80;79.20
7658;DHT22;8462;53.156;8.220;2023-03-29T03:53:19;8.80;79.20
7658;DHT22;8462;53.156;8.220;2023-03-29T03:56:09;8.80;79.30
7658;DHT22;8462;53.156;8.220;2023-03-29T03:58:59;8.80;79.30
7658;DHT22;8462;53.156;8.220;2023-03-29T04:01:28;8.80;79.40
7658;DHT22;8462;53.156;8.220;2023-03-29T04:04:03;8.80;79.70
7658;DHT22;8462;53.156;8.220;2023-03-29T04:06:32;8.80;79.60
7658;DHT22;8462;53.156;8.220;2023-03-29T04:09:30;8.80;79.60
7658;DHT22;8462;53.156;8.220;2023-03-29T04:12:26;8.80;79.80
7658;DHT22;8462;53.156;8.220;2023-03-29T04:14:53;8.80;79.90
7658;DHT22;8462;53.156;8.220;2023-03-29T04:17:21;8.80;80.20
7658;DHT22;8462;53.156;8.220;2023-03-29T04:19:59;8.80;80.30
7658;DHT22;8462;53.156;8.220;2023-03-29T04:22:34;8.80;80.30
7658;DHT22;8462;53.156;8.220;2023-03-29T04:25:05;8.80;80.30
7658;DHT22;8462;53.156;8.220;2023-03-29T04:27:59;8.80;80.40
7658;DHT22;8462;53.156;8.220;2023-03-29T04:30:48;8.80;80.30
7658;DHT22;8462;53.156;8.220;2023-03-29T04:33:29;8.80;80.20
7658;DHT22;8462;53.156;8.220;2023-03-29T04:35:59;8.90;80.10
7658;DHT22;8462;53.156;8.220;2023-03-29T04:38:27;8.80;80.00
7658;DHT22;8462;53.156;8.220;2023-03-29T04:40:54;8.90;80.20
7658;DHT22;8462;53.156;8.220;2023-03-29T04:43:40;8.80;80.10
7658;DHT22;8462;53.156;8.220;2023-03-29T04:46:20;8.90;80.20
7658;DHT22;8462;53.156;8.220;2023-03-29T04:49:19;8.90;80.20
7658;DHT22;8462;53.156;8.220;2023-03-29T04:51:49;8.90;80.10
7658;DHT22;8462;53.156;8.220;2023-03-29T04:54:21;8.90;80.20
7658;DHT22;8462;53.156;8.220;2023-03-29T04:57:01;8.80;80.50
7658;DHT22;8462;53.156;8.220;2023-03-29T04:59:42;8.80;80.50
7658;DHT22;8462;53.156;8.220;2023-03-29T05:02:21;8.80;80.60
7658;DHT22;8462;53.156;8.220;2023-03-29T05:04:49;8.80;80.70
7658;DHT22;8462;53.156;8.220;2023-03-29T05:07:18;8.80;80.70
7658;DHT22;8462;53.156;8.220;2023-03-29T05:09:48;8.80;80.70
7658;DHT22;8462;53.156;8.220;2023-03-29T05:12:17;8.80;80.60
7658;DHT22;8462;53.156;8.220;2023-03-29T05:14:51;8.80;80.70
7658;DHT22;8462;53.156;8.220;2023-03-29T05:17:19;8.70;81.00
7658;DHT22;8462;53.156;8.220;2023-03-29T05:19:47;8.80;81.00
7658;DHT22;8462;53.156;8.220;2023-03-29T05:22:14;8.80;81.10
7658;DHT22;8462;53.156;8.220;2023-03-29T05:24:41;8.80;80.90
7658;DHT22;8462;53.156;8.220;2023-03-29T05:27:15;8.80;81.00
7658;DHT22;8462;53.156;8.220;2023-03-29T05:29:47;8.90;81.00
7658;DHT22;8462;53.156;8.220;2023-03-29T05:32:25;8.90;80.90
7658;DHT22;8462;53.156;8.220;2023-03-29T05:34:52;8.80;81.20
7658;DHT22;8462;53.156;8.220;2023-03-29T05:37:20;8.80;81.10
7658;DHT22;8462;53.156;8.220;2023-03-29T05:39:52;8.90;81.30
7658;DHT22;8462;53.156;8.220;2023-03-29T05:42:27;8.80;81.50
7658;DHT22;8462;53.156;8.220;2023-03-29T05:44:58;8.90;81.30
7658;DHT22;8462;53.156;8.220;2023-03-29T05:47:24;8.80;81.30
7658;DHT22;8462;53.156;8.220;2023-03-29T05:49:52;8.90;81.50
7658;DHT22;8462;53.156;8.220;2023-03-29T05:52:21;8.90;81.30
7658;DHT22;8462;53.156;8.220;2023-03-29T05:54:48;8.90;81.40
7658;DHT22;8462;53.156;8.220;2023-03-29T05:57:15;9.00;81.60
7658;DHT22;8462;53.156;8.220;2023-03-29T05:59:44;9.00;81.20
7658;DHT22;8462;53.156;8.220;2023-03-29T06:02:12;9.00;81.20
7658;DHT22;8462;53.156;8.220;2023-03-29T06:04:44;9.10;81.10
7658;DHT22;8462;53.156;8.220;2023-03-29T06:07:24;9.10;80.70
7658;DHT22;8462;53.156;8.220;2023-03-29T06:10:14;9.10;80.20
7658;DHT22;8462;53.156;8.220;2023-03-29T06:12:46;9.10;80.50
7658;DHT22;8462;53.156;8.220;2023-03-29T06:15:15;9.20;80.70
7658;DHT22;8462;53.156;8.220;2023-03-29T06:17:46;9.20;80.50
7658;DHT22;8462;53.156;8.220;2023-03-29T06:20:13;9.30;80.60
7658;DHT22;8462;53.156;8.220;2023-03-29T06:22:44;9.30;80.20
7658;DHT22;8462;53.156;8.220;2023-03-29T06:25:12;9.40;80.10
7658;DHT22;8462;53.156;8.220;2023-03-29T06:27:42;9.50;79.60
7658;DHT22;8462;53.156;8.220;2023-03-29T06:30:14;9.50;79.70
7658;DHT22;8462;53.156;8.220;2023-03-29T06:32:45;9.70;79.40
7658;DHT22;8462;53.156;8.220;2023-03-29T06:35:31;9.70;79.00
7658;DHT22;8462;53.156;8.220;2023-03-29T06:38:04;9.80;78.60
7658;DHT22;8462;53.156;8.220;2023-03-29T06:41:00;9.80;78.50
7658;DHT22;8462;53.156;8.220;2023-03-29T06:43:34;9.90;78.20
7658;DHT22;8462;53.156;8.220;2023-03-29T06:46:08;9.90;77.90
7658;DHT22;8462;53.156;8.220;2023-03-29T06:49:02;9.90;78.00
7658;DHT22;8462;53.156;8.220;2023-03-29T06:51:34;9.90;78.40
7658;DHT22;8462;53.156;8.220;2023-03-29T06:54:02;9.90;78.20
7658;DHT22;8462;53.156;8.220;2023-03-29T06:56:30;10.00;78.10
7658;DHT22;8462;53.156;8.220;2023-03-29T06:59:04;10.20;77.60
7658;DHT22;8462;53.156;8.220;2023-03-29T07:01:43;10.20;76.90
7658;DHT22;8462;53.156;8.220;2023-03-29T07:04:17;10.30;76.70
7658;DHT22;8462;53.156;8.220;2023-03-29T07:07:03;10.30;76.60
7658;DHT22;8462;53.156;8.220;2023-03-29T07:09:34;10.30;76.40
7658;DHT22;8462;53.156;8.220;2023-03-29T07:12:24;10.40;76.70
7658;DHT22;8462;53.156;8.220;2023-03-29T07:14:55;10.30;76.50
7658;DHT22;8462;53.156;8.220;2023-03-29T07:17:29;10.30;76.50
7658;DHT22;8462;53.156;8.220;2023-03-29T07:19:57;10.30;76.50
7658;DHT22;8462;53.156;8.220;2023-03-29T07:22:41;10.30;76.70
7658;DHT22;8462;53.156;8.220;2023-03-29T07:25:09;10.30;76.90
7658;DHT22;8462;53.156;8.220;2023-03-29T07:27:38;10.40;76.90
7658;DHT22;8462;53.156;8.220;2023-03-29T07:30:09;10.40;77.10
7658;DHT22;8462;53.156;8.220;2023-03-29T07:32:39;10.40;77.30
7658;DHT22;8462;53.156;8.220;2023-03-29T07:35:20;10.40;77.60
7658;DHT22;8462;53.156;8.220;2023-03-29T07:37:48;10.40;78.30
7658;DHT22;8462;53.156;8.220;2023-03-29T07:40:16;10.30;78.40
7658;DHT22;8462;53.156;8.220;2023-03-29T07:43:08;10.40;78.50
7658;DHT22;8462;53.156;8.220;2023-03-29T07:45:36;10.30;79.30
7658;DHT22;8462;53.156;8.220;2023-03-29T07:48:10;10.40;79.20
7658;DHT22;8462;53.156;8.220;2023-03-29T07:50:58;10.40;79.40
7658;DHT22;8462;53.156;8.220;2023-03-29T07:53:30;10.40;79.20
7658;DHT22;8462;53.156;8.220;2023-03-29T07:56:00;10.40;80.00
7658;DHT22;8462;53.156;8.220;2023-03-29T07:58:45;10.40;80.20
7658;DHT22;8462;53.156;8.220;2023-03-29T08:01:13;10.50;79.90
7658;DHT22;8462;53.156;8.220;2023-03-29T08:03:57;10.60;79.80
7658;DHT22;8462;53.156;8.220;2023-03-29T08:06:41;10.70;79.70
7658;DHT22;8462;53.156;8.220;2023-03-29T08:09:09;10.70;79.20
7658;DHT22;8462;53.156;8.220;2023-03-29T08:11:40;10.80;79.40
7658;DHT22;8462;53.156;8.220;2023-03-29T08:14:15;10.90;79.00
7658;DHT22;8462;53.156;8.220;2023-03-29T08:16:57;10.90;78.70
7658;DHT22;8462;53.156;8.220;2023-03-29T08:19:26;10.90;79.20
7658;DHT22;8462;53.156;8.220;2023-03-29T08:22:03;10.90;79.40
7658;DHT22;8462;53.156;8.220;2023-03-29T08:24:50;11.00;79.20
7658;DHT22;8462;53.156;8.220;2023-03-29T08:27:17;11.00;79.10
7658;DHT22;8462;53.156;8.220;2023-03-29T08:29:45;11.10;79.30
7658;DHT22;8462;53.156;8.220;2023-03-29T08:32:12;11.20;78.70
7658;DHT22;8462;53.156;8.220;2023-03-29T08:34:45;11.30;78.80
7658;DHT22;8462;53.156;8.220;2023-03-29T08:37:22;11.40;78.70
7658;DHT22;8462;53.156;8.220;2023-03-29T08:39:53;11.50;78.20
7658;DHT22;8462;53.156;8.220;2023-03-29T08:42:49;11.50;78.40
7658;DHT22;8462;53.156;8.220;2023-03-29T08:45:26;11.50;78.80
7658;DHT22;8462;53.156;8.220;2023-03-29T08:48:05;11.50;79.30
7658;DHT22;8462;53.156;8.220;2023-03-29T08:50:38;11.40;80.10
7658;DHT22;8462;53.156;8.220;2023-03-29T08:53:11;11.50;81.00
7658;DHT22;8462;53.156;8.220;2023-03-29T08:55:58;11.50;81.00
7658;DHT22;8462;53.156;8.220;2023-03-29T08:59:00;11.60;80.00
7658;DHT22;8462;53.156;8.220;2023-03-29T09:01:33;11.60;79.80
7658;DHT22;8462;53.156;8.220;2023-03-29T09:04:04;11.60;80.40
7658;DHT22;8462;53.156;8.220;2023-03-29T09:06:48;11.60;79.90
7658;DHT22;8462;53.156;8.220;2023-03-29T09:09:24;11.70;80.10
7658;DHT22;8462;53.156;8.220;2023-03-29T09:12:05;11.70;80.10
7658;DHT22;8462;53.156;8.220;2023-03-29T09:14:56;11.80;79.80
7658;DHT22;8462;53.156;8.220;2023-03-29T09:17:38;11.90;79.30
7658;DHT22;8462;53.156;8.220;2023-03-29T09:20:19;12.00;79.40
7658;DHT22;8462;53.156;8.220;2023-03-29T09:22:54;12.00;79.40
7658;DHT22;8462;53.156;8.220;2023-03-29T09:25:34;12.10;79.20
7658;DHT22;8462;53.156;8.220;2023-03-29T09:28:06;12.10;78.90
7658;DHT22;8462;53.156;8.220;2023-03-29T09:30:58;12.20;78.90
7658;DHT22;8462;53.156;8.220;2023-03-29T09:33:32;12.20;79.10
7658;DHT22;8462;53.156;8.220;2023-03-29T09:36:11;12.20;78.90
7658;DHT22;8462;53.156;8.220;2023-03-29T09:38:45;12.10;79.20
7658;DHT22;8462;53.156;8.220;2023-03-29T09:41:18;12.10;79.40
7658;DHT22;8462;53.156;8.220;2023-03-29T09:43:48;12.20;79.40
7658;DHT22;8462;53.156;8.220;2023-03-29T09:46:22;12.30;79.20
7658;DHT22;8462;53.156;8.220;2023-03-29T09:48:54;12.40;78.90
7658;DHT22;8462;53.156;8.220;2023-03-29T09:51:24;12.50;78.60
7658;DHT22;8462;53.156;8.220;2023-03-29T09:53:53;12.60;78.10
7658;DHT22;8462;53.156;8.220;2023-03-29T09:56:41;12.70;77.60
7658;DHT22;8462;53.156;8.220;2023-03-29T09:59:12;12.80;77.50
7658;DHT22;8462;53.156;8.220;2023-03-29T10:01:42;12.80;78.10
7658;DHT22;8462;53.156;8.220;2023-03-29T10:04:12;13.00;77.80
7658;DHT22;8462;53.156;8.220;2023-03-29T10:06:46;13.10;76.50
7658;DHT22;8462;53.156;8.220;2023-03-29T10:09:19;13.20;76.10
7658;DHT22;8462;53.156;8.220;2023-03-29T10:11:51;13.30;76.40
7658;DHT22;8462;53.156;8.220;2023-03-29T10:14:22;13.30;75.70
7658;DHT22;8462;53.156;8.220;2023-03-29T10:16:57;13.30;75.70
7658;DHT22;8462;53.156;8.220;2023-03-29T10:19:27;13.50;75.90
7658;DHT22;8462;53.156;8.220;2023-03-29T10:21:59;13.60;75.90
7658;DHT22;8462;53.156;8.220;2023-03-29T10:24:27;13.70;75.30
7658;DHT22;8462;53.156;8.220;2023-03-29T10:26:57;13.80;74.80
7658;DHT22;8462;53.156;8.220;2023-03-29T10:29:26;13.80;74.50
7658;DHT22;8462;53.156;8.220;2023-03-29T10:31:59;13.80;74.30
7658;DHT22;8462;53.156;8.220;2023-03-29T10:34:26;13.90;74.70
7658;DHT22;8462;53.156;8.220;2023-03-29T10:36:58;13.90;74.50
7658;DHT22;8462;53.156;8.220;2023-03-29T10:39:32;14.00;74.50
7658;DHT22;8462;53.156;8.220;2023-03-29T10:42:00;14.10;73.80
7658;DHT22;8462;53.156;8.220;2023-03-29T10:44:30;14.20;73.80
7658;DHT22;8462;53.156;8.220;2023-03-29T10:47:11;14.20;73.70
7658;DHT22;8462;53.156;8.220;2023-03-29T10:49:41;14.40;73.40
7658;DHT22;8462;53.156;8.220;2023-03-29T10:52:12;14.40;72.70
7658;DHT22;8462;53.156;8.220;2023-03-29T10:54:41;14.40;73.00
7658;DHT22;8462;53.156;8.220;2023-03-29T10:57:12;14.50;73.60
7658;DHT22;8462;53.156;8.220;2023-03-29T10:59:49;14.70;72.60
7658;DHT22;8462;53.156;8.220;2023-03-29T11:05:32;15.00;71.50
7658;DHT22;8462;53.156;8.220;2023-03-29T11:11:08;15.40;70.20
7658;DHT22;8462;53.156;8.220;2023-03-29T11:13:44;15.70;70.70
7658;DHT22;8462;53.156;8.220;2023-03-29T11:16:22;15.90;69.50
7658;DHT22;8462;53.156;8.220;2023-03-29T11:21:58;16.30;67.90
7658;DHT22;8462;53.156;8.220;2023-03-29T11:24:42;16.40;67.80
7658;DHT22;8462;53.156;8.220;2023-03-29T11:27:21;16.50;68.00
7658;DHT22;8462;53.156;8.220;2023-03-29T11:29:59;16.60;66.90
7658;DHT22;8462;53.156;8.220;2023-03-29T11:32:35;16.70;66.50
7658;DHT22;8462;53.156;8.220;2023-03-29T11:38:15;16.90;65.90
7658;DHT22;8462;53.156;8.220;2023-03-29T11:40:54;17.10;65.20
7658;DHT22;8462;53.156;8.220;2023-03-29T11:43:28;17.20;65.40
7658;DHT22;8462;53.156;8.220;2023-03-29T11:46:02;17.30;64.60
7658;DHT22;8462;53.156;8.220;2023-03-29T11:48:37;17.30;64.70
7658;DHT22;8462;53.156;8.220;2023-03-29T11:51:08;17.20;64.90
7658;DHT22;8462;53.156;8.220;2023-03-29T11:53:43;17.20;64.70
7658;DHT22;8462;53.156;8.220;2023-03-29T11:56:16;17.20;65.10
7658;DHT22;8462;53.156;8.220;2023-03-29T11:58:51;17.30;65.10
7658;DHT22;8462;53.156;8.220;2023-03-29T12:01:26;17.40;65.00
7658;DHT22;8462;53.156;8.220;2023-03-29T12:03:56;17.50;64.30
7658;DHT22;8462;53.156;8.220;2023-03-29T12:06:28;17.40;64.10
7658;DHT22;8462;53.156;8.220;2023-03-29T12:08:59;17.40;64.60
7658;DHT22;8462;53.156;8.220;2023-03-29T12:11:32;17.40;64.30
7658;DHT22;8462;53.156;8.220;2023-03-29T12:14:04;17.30;64.70
7658;DHT22;8462;53.156;8.220;2023-03-29T12:16:39;17.20;65.00
7658;DHT22;8462;53.156;8.220;2023-03-29T12:19:15;17.00;65.20
7658;DHT22;8462;53.156;8.220;2023-03-29T12:21:44;16.80;65.90
7658;DHT22;8462;53.156;8.220;2023-03-29T12:24:14;16.80;66.90
7658;DHT22;8462;53.156;8.220;2023-03-29T12:29:47;16.80;67.10
7658;DHT22;8462;53.156;8.220;2023-03-29T12:32:34;16.90;67.30
7658;DHT22;8462;53.156;8.220;2023-03-29T12:35:28;17.00;66.70
7658;DHT22;8462;53.156;8.220;2023-03-29T12:38:39;17.20;66.80
7658;DHT22;8462;53.156;8.220;2023-03-29T12:41:35;17.30;65.50
7658;DHT22;8462;53.156;8.220;2023-03-29T12:44:13;17.30;65.90
7658;DHT22;8462;53.156;8.220;2023-03-29T12:46:52;17.50;65.40
7658;DHT22;8462;53.156;8.220;2023-03-29T12:49:26;17.70;66.30
7658;DHT22;8462;53.156;8.220;2023-03-29T12:51:56;17.80;64.30
7658;DHT22;8462;53.156;8.220;2023-03-29T12:54:27;17.90;64.30
7658;DHT22;8462;53.156;8.220;2023-03-29T12:56:57;18.10;63.40
7658;DHT22;8462;53.156;8.220;2023-03-29T12:59:34;18.00;62.80
7658;DHT22;8462;53.156;8.220;2023-03-29T13:05:00;18.00;63.00
7658;DHT22;8462;53.156;8.220;2023-03-29T13:07:32;17.90;63.30
7658;DHT22;8462;53.156;8.220;2023-03-29T13:10:29;17.90;63.00
7658;DHT22;8462;53.156;8.220;2023-03-29T13:13:11;18.00;63.00
7658;DHT22;8462;53.156;8.220;2023-03-29T13:15:42;18.10;62.70
7658;DHT22;8462;53.156;8.220;2023-03-29T13:18:19;18.10;62.70
7658;DHT22;8462;53.156;8.220;2023-03-29T13:20:57;18.10;62.60
7658;DHT22;8462;53.156;8.220;2023-03-29T13:23:35;18.10;62.70
7658;DHT22;8462;53.156;8.220;2023-03-29T13:26:26;18.00;62.60
7658;DHT22;8462;53.156;8.220;2023-03-29T13:32:00;17.90;62.80
7658;DHT22;8462;53.156;8.220;2023-03-29T13:34:36;17.90;62.80
7658;DHT22;8462;53.156;8.220;2023-03-29T13:37:17;18.00;63.00
7658;DHT22;8462;53.156;8.220;2023-03-29T13:39:50;17.90;62.60
7658;DHT22;8462;53.156;8.220;2023-03-29T13:42:20;17.90;63.50
7658;DHT22;8462;53.156;8.220;2023-03-29T13:44:52;18.10;63.20
7658;DHT22;8462;53.156;8.220;2023-03-29T13:47:38;18.10;62.90
7658;DHT22;8462;53.156;8.220;2023-03-29T13:50:15;18.30;62.20
7658;DHT22;8462;53.156;8.220;2023-03-29T13:52:51;18.40;61.60
7658;DHT22;8462;53.156;8.220;2023-03-29T13:55:25;18.60;61.40
7658;DHT22;8462;53.156;8.220;2023-03-29T13:57:58;18.60;61.10
7658;DHT22;8462;53.156;8.220;2023-03-29T14:00:30;18.70;61.40
7658;DHT22;8462;53.156;8.220;2023-03-29T14:02:59;18.70;61.10
7658;DHT22;8462;53.156;8.220;2023-03-29T14:05:31;18.70;61.30
7658;DHT22;8462;53.156;8.220;2023-03-29T14:08:07;18.70;61.20
7658;DHT22;8462;53.156;8.220;2023-03-29T14:10:39;18.70;60.50
7658;DHT22;8462;53.156;8.220;2023-03-29T14:13:11;18.50;60.90
7658;DHT22;8462;53.156;8.220;2023-03-29T14:15:42;18.40;61.00
7658;DHT22;8462;53.156;8.220;2023-03-29T14:18:14;18.20;62.10
7658;DHT22;8462;53.156;8.220;2023-03-29T14:20:43;18.20;62.60
7658;DHT22;8462;53.156;8.220;2023-03-29T14:23:17;18.10;62.80
7658;DHT22;8462;53.156;8.220;2023-03-29T14:25:47;18.10;62.80
7658;DHT22;8462;53.156;8.220;2023-03-29T14:28:22;18.00;63.10
7658;DHT22;8462;53.156;8.220;2023-03-29T14:30:49;17.90;63.50
7658;DHT22;8462;53.156;8.220;2023-03-29T14:33:28;17.70;64.40
7658;DHT22;8462;53.156;8.220;2023-03-29T14:35:58;17.60;65.20
7658;DHT22;8462;53.156;8.220;2023-03-29T14:38:28;17.50;65.70
7658;DHT22;8462;53.156;8.220;2023-03-29T14:40:58;17.40;66.30
7658;DHT22;8462;53.156;8.220;2023-03-29T14:43:26;17.40;66.60
7658;DHT22;8462;53.156;8.220;2023-03-29T14:45:56;17.60;66.60
7658;DHT22;8462;53.156;8.220;2023-03-29T14:48:25;17.70;65.80
7658;DHT22;8462;53.156;8.220;2023-03-29T14:50:52;17.70;65.60
7658;DHT22;8462;53.156;8.220;2023-03-29T14:53:21;17.70;65.70
7658;DHT22;8462;53.156;8.220;2023-03-29T14:55:51;17.70;65.70
7658;DHT22;8462;53.156;8.220;2023-03-29T14:58:21;17.70;65.50
7658;DHT22;8462;53.156;8.220;2023-03-29T15:00:50;17.70;65.60
7658;DHT22;8462;53.156;8.220;2023-03-29T15:03:18;17.70;65.00
7658;DHT22;8462;53.156;8.220;2023-03-29T15:05:49;17.70;64.60
7658;DHT22;8462;53.156;8.220;2023-03-29T15:08:27;17.70;64.60
7658;DHT22;8462;53.156;8.220;2023-03-29T15:10:56;17.60;64.50
7658;DHT22;8462;53.156;8.220;2023-03-29T15:13:24;17.60;65.00
7658;DHT22;8462;53.156;8.220;2023-03-29T15:15:53;17.60;65.70
7658;DHT22;8462;53.156;8.220;2023-03-29T15:18:25;17.60;66.00
7658;DHT22;8462;53.156;8.220;2023-03-29T15:20:53;17.60;65.70
7658;DHT22;8462;53.156;8.220;2023-03-29T15:23:23;17.60;65.80
7658;DHT22;8462;53.156;8.220;2023-03-29T15:25:53;17.60;65.70
7658;DHT22;8462;53.156;8.220;2023-03-29T15:28:28;17.40;66.30
7658;DHT22;8462;53.156;8.220;2023-03-29T15:31:00;17.30;66.80
7658;DHT22;8462;53.156;8.220;2023-03-29T15:33:32;17.30;66.90
7658;DHT22;8462;53.156;8.220;2023-03-29T15:36:02;17.30;67.10
7658;DHT22;8462;53.156;8.220;2023-03-29T15:38:30;17.40;67.20
7658;DHT22;8462;53.156;8.220;2023-03-29T15:40:57;17.30;67.20
7658;DHT22;8462;53.156;8.220;2023-03-29T15:43:26;17.30;67.80
7658;DHT22;8462;53.156;8.220;2023-03-29T15:45:53;17.20;68.30
7658;DHT22;8462;53.156;8.220;2023-03-29T15:48:22;17.10;68.80
7658;DHT22;8462;53.156;8.220;2023-03-29T15:50:49;17.00;69.10
7658;DHT22;8462;53.156;8.220;2023-03-29T15:53:16;17.00;69.50
7658;DHT22;8462;53.156;8.220;2023-03-29T15:55:47;16.90;69.90
7658;DHT22;8462;53.156;8.220;2023-03-29T15:58:16;16.90;70.10
7658;DHT22;8462;53.156;8.220;2023-03-29T16:00:48;16.80;70.00
7658;DHT22;8462;53.156;8.220;2023-03-29T16:03:16;16.80;70.00
7658;DHT22;8462;53.156;8.220;2023-03-29T16:05:44;16.70;70.00
7658;DHT22;8462;53.156;8.220;2023-03-29T16:08:12;16.60;70.10
7658;DHT22;8462;53.156;8.220;2023-03-29T16:10:40;16.50;70.30
7658;DHT22;8462;53.156;8.220;2023-03-29T16:13:10;16.50;71.00
7658;DHT22;8462;53.156;8.220;2023-03-29T16:15:39;16.30;71.60
7658;DHT22;8462;53.156;8.220;2023-03-29T16:18:09;16.30;71.80
7658;DHT22;8462;53.156;8.220;2023-03-29T16:20:36;16.20;72.40
7658;DHT22;8462;53.156;8.220;2023-03-29T16:23:04;16.10;73.00
7658;DHT22;8462;53.156;8.220;2023-03-29T16:25:35;16.00;73.40
7658;DHT22;8462;53.156;8.220;2023-03-29T16:28:04;15.90;73.70
7658;DHT22;8462;53.156;8.220;2023-03-29T16:30:33;15.80;74.10
7658;DHT22;8462;53.156;8.220;2023-03-29T16:33:00;15.80;74.50
7658;DHT22;8462;53.156;8.220;2023-03-29T16:35:35;15.70;74.70
7658;DHT22;8462;53.156;8.220;2023-03-29T16:38:02;15.70;75.10
7658;DHT22;8462;53.156;8.220;2023-03-29T16:40:29;15.70;75.00
7658;DHT22;8462;53.156;8.220;2023-03-29T16:42:57;15.70;75.00
7658;DHT22;8462;53.156;8.220;2023-03-29T16:45:25;15.70;75.10
7658;DHT22;8462;53.156;8.220;2023-03-29T16:47:52;15.60;75.00
7658;DHT22;8462;53.156;8.220;2023-03-29T16:50:20;15.60;75.30
7658;DHT22;8462;53.156;8.220;2023-03-29T16:52:49;15.50;75.40
7658;DHT22;8462;53.156;8.220;2023-03-29T16:55:17;15.50;75.90
7658;DHT22;8462;53.156;8.220;2023-03-29T16:57:45;15.40;76.00
7658;DHT22;8462;53.156;8.220;2023-03-29T17:00:14;15.30;76.40
7658;DHT22;8462;53.156;8.220;2023-03-29T17:02:44;15.20;76.70
7658;DHT22;8462;53.156;8.220;2023-03-29T17:05:16;15.20;77.10
7658;DHT22;8462;53.156;8.220;2023-03-29T17:07:43;15.10;77.60